RLSO2: Arkansas River, Ralston, OK

Data processed at Sun Apr 30 2017 23:20


All information presented herein is the property of the government of the United States of America and may be revised or deleted at any time without prior notice.
Dissemination of this information without the expressed written consent of the Public Affairs Office, Tulsa District U.S. Army Corps of Engineers is strictly prohibited.
These data are gathered electronically and, as presented, have not undergone any form of quality control. These data are not guaranteed to be valid or correct.
Go to home page.
Go to station list.
Go to station map.

Upstream stations:

Downstream station:
Previous Day
Next Day
Current Day
    
SHEF ID:       RLSO2     Arkansas River at Ralston, OK
STATION TYPE:  

               PRECIP     STAGE  RIV-FLOW  BAT-LOAD
                   in        ft       cfs      volt
              Ccp-Rev   Ccp-Rev   Ccp-Rev   Ccp-Rev
(US/Central)
04/30 00:00      0.00     10.65     28476     12.49
04/30 01:00      0.00     10.52     27592     12.49
04/30 02:00      0.01     10.40     26783     12.49
04/30 03:00      0.00     10.28     25987     12.49
04/30 04:00      0.01     10.11     24923     12.49
04/30 05:00      0.01      9.89     23554     12.49
04/30 06:00      0.00      9.74     22643     12.49
04/30 07:00      0.00      9.55     21490     12.49
04/30 08:00      0.00      9.36     20370     12.49
04/30 09:00      0.01      9.09     18885     12.65
04/30 10:00      0.00      8.89     17780     12.89
04/30 11:00      0.00      8.71     16797     13.29
04/30 12:00      0.00      8.55     15972     13.68
04/30 13:00      0.00      8.38     15077     13.76
04/30 14:00      0.03      8.26     14551     13.92
04/30 15:00      0.00      8.13     13991     13.84
04/30 16:00      0.03      8.03     13566     13.76
04/30 17:00      0.02      8.01     13482     13.92
04/30 18:00      0.00      7.88     12940     13.84
04/30 19:00      0.01      7.81     12652     13.60
04/30 20:00      0.00      7.77     12489     13.29
04/30 21:00      0.00      7.78     12530     12.97
04/30 22:00      0.00      7.75     12406     12.65
04/30 23:00      ----      ----      ----      ----